Latest Weather Observations for Mount Moornapa

IDV60801

Issued at 3:02 pm EST Sunday 30 April 2017 (issued every 30 minutes, with the page automatically refreshed every 10 minutes)

About weather observations | Map of weather stations | Latest weather observations for VIC | Other Formats
Station Details ID: 085296 Name: MOUNT MOORNAPA Lat: -37.75 Lon: 147.14 Height: 480.0 m
Data from the previous 72 hours. | See also: Recent months at Mount Moornapa
Date/Time
EST
Temp
°C
App
Temp
°C
Dew
Point
°C
Rel
Hum
%
Delta-T
°C
Wind Press
QNH
hPa
Press
MSL
hPa
Rain since
9am
mm
Dir  Spd
km/h
Gust
km/h
Spd
kts
Gust
kts
30/03:00pm 15.5 15.0 10.7 73 2.6 SE 4 6 2 3 - - 0.0
30/02:30pm 15.6 14.7 10.6 72 2.7 SSE 6 11 3 6 - - 0.0
30/02:00pm 15.5 14.9 10.5 72 2.7 SSE 4 7 2 4 - - 0.0
30/01:30pm 15.9 15.4 10.9 72 2.7 SSE 4 6 2 3 - - 0.0
30/01:00pm 15.5 15.3 10.5 72 2.7 SSE 2 6 1 3 - - 0.0
30/12:30pm 15.1 14.4 9.9 71 2.8 S 4 6 2 3 - - 0.0
30/12:00pm 14.6 13.9 10.0 74 2.5 SSE 4 6 2 3 - - 0.0
30/11:30am 14.1 13.2 9.1 72 2.6 S 4 6 2 3 - - 0.0
30/11:00am 13.2 12.2 8.9 75 2.2 S 4 7 2 4 - - 0.0
30/10:30am 13.2 12.7 9.3 77 2.0 S 2 6 1 3 - - 0.0
30/10:00am 13.1 12.5 9.0 76 2.1 N 2 6 1 3 - - 0.0
30/09:30am 12.1 10.9 8.2 77 2.0 NNE 4 7 2 4 - - 0.0
30/09:00am 12.2 11.7 9.2 82 1.5 E 2 7 1 4 - - 0.0
30/08:30am 11.4 11.3 9.5 88 1.0 CALM 0 4 0 2 - - 0.0
30/08:00am 10.1 9.5 9.0 93 0.6 E 2 7 1 4 - - 0.0
30/07:30am 9.4 9.1 8.5 94 0.4 CALM 0 2 0 1 - - 0.0
30/07:00am 9.0 8.2 8.1 94 0.4 E 2 4 1 2 - - 0.0
30/06:30am 9.6 8.4 8.0 90 0.8 NE 4 6 2 3 - - 0.0
30/06:00am 9.7 8.6 8.6 93 0.6 NNE 4 6 2 3 - - 0.0
30/05:30am 9.7 8.8 9.1 96 0.3 N 4 7 2 4 - - 0.0
30/05:00am 9.8 8.8 9.0 95 0.4 N 4 6 2 3 - - 0.0
30/04:30am 9.6 8.6 9.0 96 0.3 NW 4 6 2 3 - - 0.0
30/04:00am 9.9 9.0 9.4 97 0.3 N 4 6 2 3 - - 0.0
30/03:30am 9.7 9.2 9.2 97 0.3 WNW 2 4 1 2 - - 0.0
30/03:00am 9.8 8.9 9.2 96 0.3 WSW 4 6 2 3 - - 0.0
30/02:30am 9.9 9.0 9.3 96 0.3 SW 4 7 2 4 - - 0.0
30/02:00am 10.0 9.1 9.4 96 0.3 WSW 4 7 2 4 - - 0.0
30/01:30am 10.2 9.3 9.4 95 0.4 SW 4 6 2 3 - - 0.0
30/01:00am 10.3 9.8 9.4 94 0.5 S 2 4 1 2 - - 0.0
30/12:30am 10.6 10.6 9.8 95 0.4 CALM 0 6 0 3 - - 0.0
30/12:00am 10.6 9.8 9.8 95 0.4 S 4 9 2 5 - - 0.0
 
Date/Time
EST
Temp
°C
App
Temp
°C
Dew
Point
°C
Rel
Hum
%
Delta-T
°C
Wind Press
QNH
hPa
Press
MSL
hPa
Rain since
9am
mm
Dir  Spd
km/h
Gust
km/h
Spd
kts
Gust
kts
29/11:30pm 10.6 9.5 9.8 95 0.4 S 6 9 3 5 - - 0.0
29/11:00pm 10.7 9.6 9.9 95 0.4 S 6 11 3 6 - - 0.0
29/10:30pm 10.7 9.6 9.9 95 0.4 SSE 6 9 3 5 - - 0.0
29/10:00pm 10.9 9.8 10.1 95 0.4 S 6 11 3 6 - - 0.0
29/09:30pm 11.0 10.4 10.4 96 0.3 SSW 4 11 2 6 - - 0.0
29/09:00pm 10.9 10.3 10.4 97 0.3 SW 4 9 2 5 - - 0.0
29/08:30pm 11.0 10.4 10.4 96 0.3 S 4 9 2 5 - - 0.0
29/08:00pm 11.3 10.4 10.7 96 0.3 S 6 9 3 5 - - 0.0
29/07:30pm 11.4 10.3 10.8 96 0.3 S 7 13 4 7 - - 0.0
29/07:00pm 11.4 10.3 10.8 96 0.3 S 7 13 4 7 - - 0.0
29/06:30pm 11.6 10.5 10.7 94 0.5 S 7 13 4 7 - - 0.0
29/06:00pm 11.8 11.2 10.4 91 0.7 S 4 9 2 5 - - 0.0
29/05:30pm 12.5 11.5 10.4 87 1.1 S 6 11 3 6 - - 0.0
29/05:00pm 13.3 12.3 10.3 82 1.6 SSW 6 11 3 6 - - 0.0
29/04:30pm 15.0 14.6 11.2 78 2.1 SSW 4 7 2 4 - - 0.0
29/04:00pm 15.4 14.4 11.0 75 2.4 SSW 7 19 4 10 - - 0.0
29/03:30pm 15.5 14.5 11.1 75 2.4 SSW 7 17 4 9 - - 0.0
29/03:00pm 15.3 14.4 11.5 78 2.1 S 7 20 4 11 - - 0.0
29/02:30pm 15.6 14.7 11.4 76 2.3 S 7 17 4 9 - - 0.0
29/02:00pm 16.5 15.9 11.6 73 2.7 S 6 24 3 13 - - 0.0
29/01:30pm 15.9 14.9 10.4 70 3.0 S 6 13 3 7 - - 0.0
29/01:00pm 17.1 16.2 11.2 68 3.3 WSW 7 17 4 9 - - 0.0
29/12:30pm 16.7 16.0 12.0 74 2.6 SW 7 15 4 8 - - 0.0
29/12:00pm 15.8 15.3 12.2 79 2.0 SSW 6 15 3 8 - - 0.0
29/11:30am 16.6 16.1 12.2 75 2.5 S 6 13 3 7 - - 0.0
29/11:00am 16.2 16.1 12.2 77 2.2 S 4 11 2 6 - - 0.0
29/10:30am 14.9 14.4 10.7 76 2.3 S 4 6 2 3 - - 0.0
29/10:00am 14.8 14.5 10.0 73 2.6 SW 2 6 1 3 - - 0.0
29/09:30am 14.8 14.0 9.8 72 2.7 WNW 4 9 2 5 - - 0.0
29/09:00am 13.8 12.4 9.0 73 2.5 W 6 11 3 6 - - 0.0
29/08:30am 12.9 11.3 8.8 76 2.1 WNW 7 13 4 7 - - 0.0
29/08:00am 12.7 10.7 8.8 77 2.0 WNW 9 15 5 8 - - 0.0
29/07:30am 12.1 10.1 8.8 80 1.7 WNW 9 17 5 9 - - 0.0
29/07:00am 11.5 9.5 8.5 82 1.5 NW 9 17 5 9 - - 0.0
29/06:30am 12.3 10.0 9.0 80 1.7 W 11 17 6 9 - - 0.0
29/06:00am 12.1 10.2 8.9 81 1.6 WSW 9 17 5 9 - - 0.0
29/05:30am 12.1 10.5 8.6 79 1.8 WSW 7 15 4 8 - - 0.0
29/05:00am 12.1 10.4 8.4 78 1.9 WSW 7 13 4 7 - - 0.0
29/04:30am 11.7 9.6 8.2 79 1.8 W 9 13 5 7 - - 0.0
29/04:00am 11.3 9.6 8.2 81 1.6 WNW 7 15 4 8 - - 0.0
29/03:30am 12.0 10.0 8.5 79 1.8 WSW 9 15 5 8 - - 0.0
29/03:00am 12.1 11.2 7.8 75 2.2 SSW 2 6 1 3 - - 0.0
29/02:30am 12.1 10.4 7.4 73 2.3 WSW 6 11 3 6 - - 0.0
29/02:00am 12.2 10.4 7.1 71 2.5 WSW 6 7 3 4 - - 0.0
29/01:30am 11.9 9.9 7.2 73 2.3 W 7 11 4 6 - - 0.0
29/01:00am 10.9 8.9 7.0 77 1.9 NW 7 11 4 6 - - 0.0
29/12:30am 11.2 9.2 7.1 76 2.0 NW 7 13 4 7 - - 0.0
29/12:00am 11.1 8.7 7.2 77 1.9 NW 9 20 5 11 - - 0.0
 
Date/Time
EST
Temp
°C
App
Temp
°C
Dew
Point
°C
Rel
Hum
%
Delta-T
°C
Wind Press
QNH
hPa
Press
MSL
hPa
Rain since
9am
mm
Dir  Spd
km/h
Gust
km/h
Spd
kts
Gust
kts
28/11:30pm 11.0 8.2 7.1 77 1.9 NW 11 17 6 9 - - 0.0
28/11:00pm 11.8 8.7 7.3 74 2.2 NW 13 19 7 10 - - 0.0
28/10:30pm 11.4 9.0 7.1 75 2.1 NW 9 13 5 7 - - 0.0
28/10:00pm 11.1 8.7 7.2 77 1.9 NW 9 13 5 7 - - 0.0
28/09:30pm 11.0 8.7 7.3 78 1.8 NW 9 15 5 8 - - 0.0
28/09:00pm 11.2 9.4 7.1 76 2.0 NW 6 11 3 6 - - 0.0
28/08:30pm 11.4 9.5 7.5 77 1.9 NW 7 13 4 7 - - 0.0
28/08:00pm 11.8 9.9 7.7 76 2.0 NW 7 17 4 9 - - 0.0
28/07:30pm 13.0 9.7 7.9 71 2.6 W 15 28 8 15 - - 0.0
28/07:00pm 12.7 9.9 8.6 76 2.1 W 13 22 7 12 - - 0.0
28/06:30pm 12.6 10.8 9.4 81 1.7 WSW 9 19 5 10 - - 0.0
28/06:00pm 12.4 10.7 10.0 85 1.3 WSW 9 17 5 9 - - 0.0
28/05:30pm 12.7 12.0 9.9 83 1.5 S 4 9 2 5 - - 0.0
28/05:00pm 13.8 13.1 10.2 79 1.9 S 4 7 2 4 - - 0.0
28/04:30pm 15.4 15.2 10.6 73 2.6 SSW 2 11 1 6 - - 0.0
28/04:00pm 15.1 14.2 10.5 74 2.5 S 6 9 3 5 - - 0.0
28/03:30pm 16.1 15.5 10.4 69 3.1 SSE 4 9 2 5 - - 0.0
28/03:00pm 16.4 15.8 9.1 62 3.9 S 2 7 1 4 - - 0.0
28/02:30pm 16.1 15.2 9.1 63 3.7 S 4 9 2 5 - - 0.0
28/02:00pm 17.4 16.3 8.5 56 4.7 WSW 4 6 2 3 - - 0.0
28/01:30pm 17.4 16.6 8.0 54 4.9 W 2 6 1 3 - - 0.0
28/01:00pm 17.2 16.1 8.4 56 4.6 WNW 4 7 2 4 - - 0.0
28/12:30pm 16.3 15.0 7.8 57 4.4 WNW 4 9 2 5 - - 0.0
28/12:00pm 15.1 13.2 6.9 58 4.1 W 6 9 3 5 - - 0.0
28/11:30am 14.9 13.4 7.0 59 4.0 W 4 7 2 4 - - 0.0
28/11:00am 13.9 12.3 7.9 67 3.1 NNW 6 9 3 5 - - 0.0
28/10:30am 13.0 11.1 6.8 66 3.1 N 6 11 3 6 - - 0.0
28/10:00am 12.1 9.9 6.2 67 2.9 NNW 7 13 4 7 - - 0.0
28/09:30am 12.4 10.3 6.5 67 2.9 W 7 17 4 9 - - 0.0
28/09:00am 10.0 7.0 5.8 75 2.0 N 11 17 6 9 - - 0.8
28/08:30am 8.7 4.8 5.3 79 1.6 N 15 20 8 11 - - 0.8
28/08:00am 8.9 6.1 5.1 77 1.8 NNW 9 17 5 9 - - 0.8
28/07:30am 9.7 7.4 5.5 75 2.0 W 7 17 4 9 - - 0.8
28/07:00am 9.2 6.5 5.6 78 1.7 WNW 9 19 5 10 - - 0.8
28/06:30am 8.3 5.8 4.9 79 1.6 NW 7 11 4 6 - - 0.8
28/06:00am 7.4 4.9 4.7 83 1.2 NW 7 11 4 6 - - 0.8
28/05:30am 9.2 6.7 4.8 74 2.0 W 7 15 4 8 - - 0.8
28/05:00am 8.3 5.8 4.9 79 1.6 WNW 7 13 4 7 - - 0.8
28/04:30am 7.9 5.0 4.7 80 1.4 NW 9 15 5 8 - - 0.8
28/04:00am 7.8 5.4 5.1 83 1.2 NW 7 9 4 5 - - 0.8
28/03:30am 7.5 5.0 4.8 83 1.2 NW 7 9 4 5 - - 0.8
28/03:00am 7.3 4.8 4.8 84 1.1 NW 7 11 4 6 - - 0.8
28/02:30am 7.8 5.3 4.9 82 1.3 WNW 7 11 4 6 - - 0.8
28/02:00am 7.7 5.4 5.0 83 1.2 WNW 6 9 3 5 - - 0.8
28/01:30am 8.1 5.6 4.9 80 1.5 WNW 7 13 4 7 - - 0.8
28/01:00am 8.4 5.2 5.0 79 1.6 W 11 20 6 11 - - 0.8
28/12:30am 7.9 5.3 4.3 78 1.6 WNW 7 15 4 8 - - 0.8
28/12:00am 7.9 5.6 4.7 80 1.4 WNW 6 11 3 6 - - 0.8
 
Date/Time
EST
Temp
°C
App
Temp
°C
Dew
Point
°C
Rel
Hum
%
Delta-T
°C
Wind Press
QNH
hPa
Press
MSL
hPa
Rain since
9am
mm
Dir  Spd
km/h
Gust
km/h
Spd
kts
Gust
kts
27/11:30pm 7.5 5.2 4.8 83 1.2 NW 6 9 3 5 - - 0.8
27/11:00pm 7.9 5.6 4.8 81 1.4 NW 6 9 3 5 - - 0.8
27/10:30pm 8.4 5.1 4.6 77 1.7 W 11 19 6 10 - - 0.8
27/10:00pm 8.3 5.7 4.3 76 1.8 W 7 13 4 7 - - 0.8
27/09:30pm 8.3 5.3 4.1 75 1.9 W 9 15 5 8 - - 0.8
27/09:00pm 8.2 5.2 4.2 76 1.8 W 9 17 5 9 - - 0.8
27/08:30pm 8.2 5.3 4.4 77 1.7 W 9 20 5 11 - - 0.8
27/08:00pm 8.1 5.2 4.5 78 1.6 WSW 9 15 5 8 - - 0.8
27/07:30pm 8.0 4.7 4.8 80 1.5 W 11 20 6 11 - - 0.8
27/07:00pm 7.8 4.6 5.1 83 1.2 W 11 19 6 10 - - 0.8
27/06:30pm 7.4 4.2 5.2 86 1.0 W 11 17 6 9 - - 0.8
27/06:00pm 7.1 4.0 5.4 89 0.8 W 11 17 6 9 - - 0.8
27/05:30pm 7.0 4.0 6.1 94 0.4 W 11 17 6 9 - - 0.8
27/05:00pm 7.2 5.2 6.9 98 0.1 WNW 7 11 4 6 - - 0.8
27/04:30pm 7.2 5.3 6.8 97 0.2 WSW 6 13 3 7 - - 0.8
27/04:00pm 8.3 6.2 5.6 83 1.3 W 6 9 3 5 - - 0.0
27/03:30pm 8.6 6.9 5.9 83 1.3 SW 4 15 2 8 - - 0.0

Other Formats:

Comma delimited format used in spreadsheet applications
http://www.bom.gov.au/fwo/IDV60801/IDV60801.95913.axf

JavaScript Object Notation format (JSON) in row-major order
http://www.bom.gov.au/fwo/IDV60801/IDV60801.95913.json